sensor_id;sensor_type;location;lat;lon;timestamp;P1;durP1;ratioP1;P2;durP2;ratioP2
80229;SDS011;69540;42.136;24.742;2023-06-14T00:01:51;1.90;;;1.80;;
80229;SDS011;69540;42.136;24.742;2023-06-14T00:04:17;1.70;;;1.60;;
80229;SDS011;69540;42.136;24.742;2023-06-14T00:06:44;1.60;;;1.50;;
80229;SDS011;69540;42.136;24.742;2023-06-14T00:09:10;2.13;;;1.90;;
80229;SDS011;69540;42.136;24.742;2023-06-14T00:11:38;1.80;;;1.70;;
80229;SDS011;69540;42.136;24.742;2023-06-14T00:14:04;1.60;;;1.50;;
80229;SDS011;69540;42.136;24.742;2023-06-14T00:16:30;1.85;;;1.75;;
80229;SDS011;69540;42.136;24.742;2023-06-14T00:18:57;1.95;;;1.80;;
80229;SDS011;69540;42.136;24.742;2023-06-14T00:21:23;1.80;;;1.70;;
80229;SDS011;69540;42.136;24.742;2023-06-14T00:23:49;1.60;;;1.50;;
80229;SDS011;69540;42.136;24.742;2023-06-14T00:26:14;1.80;;;1.70;;
80229;SDS011;69540;42.136;24.742;2023-06-14T00:28:40;1.88;;;1.77;;
80229;SDS011;69540;42.136;24.742;2023-06-14T00:31:06;1.63;;;1.63;;
80229;SDS011;69540;42.136;24.742;2023-06-14T00:33:31;2.10;;;2.00;;
80229;SDS011;69540;42.136;24.742;2023-06-14T00:35:57;1.83;;;1.73;;
80229;SDS011;69540;42.136;24.742;2023-06-14T00:38:22;2.03;;;1.92;;
80229;SDS011;69540;42.136;24.742;2023-06-14T00:40:48;1.70;;;1.60;;
80229;SDS011;69540;42.136;24.742;2023-06-14T00:43:14;1.50;;;1.50;;
80229;SDS011;69540;42.136;24.742;2023-06-14T00:45:40;1.80;;;1.70;;
80229;SDS011;69540;42.136;24.742;2023-06-14T00:48:05;1.98;;;1.88;;
80229;SDS011;69540;42.136;24.742;2023-06-14T00:50:32;1.80;;;1.70;;
80229;SDS011;69540;42.136;24.742;2023-06-14T00:52:59;1.70;;;1.60;;
80229;SDS011;69540;42.136;24.742;2023-06-14T00:55:26;1.40;;;1.40;;
80229;SDS011;69540;42.136;24.742;2023-06-14T00:57:53;1.67;;;1.60;;
80229;SDS011;69540;42.136;24.742;2023-06-14T01:00:22;1.90;;;1.80;;
80229;SDS011;69540;42.136;24.742;2023-06-14T01:02:47;1.33;;;1.33;;
80229;SDS011;69540;42.136;24.742;2023-06-14T01:05:14;1.92;;;1.83;;
80229;SDS011;69540;42.136;24.742;2023-06-14T01:13:23;1.50;;;1.50;;
80229;SDS011;69540;42.136;24.742;2023-06-14T01:15:55;1.65;;;1.55;;
80229;SDS011;69540;42.136;24.742;2023-06-14T01:18:22;1.80;;;1.70;;
80229;SDS011;69540;42.136;24.742;2023-06-14T01:20:51;1.77;;;1.70;;
80229;SDS011;69540;42.136;24.742;2023-06-14T01:23:20;1.70;;;1.60;;
80229;SDS011;69540;42.136;24.742;2023-06-14T01:25:46;1.60;;;1.60;;
80229;SDS011;69540;42.136;24.742;2023-06-14T01:28:15;1.90;;;1.80;;
80229;SDS011;69540;42.136;24.742;2023-06-14T01:30:41;1.50;;;1.40;;
80229;SDS011;69540;42.136;24.742;2023-06-14T01:33:12;1.77;;;1.67;;
80229;SDS011;69540;42.136;24.742;2023-06-14T01:35:41;1.70;;;1.60;;
80229;SDS011;69540;42.136;24.742;2023-06-14T01:38:08;1.80;;;1.70;;
80229;SDS011;69540;42.136;24.742;2023-06-14T01:40:34;1.42;;;1.42;;
80229;SDS011;69540;42.136;24.742;2023-06-14T01:43:00;1.65;;;1.60;;
80229;SDS011;69540;42.136;24.742;2023-06-14T01:45:27;1.65;;;1.55;;
80229;SDS011;69540;42.136;24.742;2023-06-14T01:47:54;1.77;;;1.67;;
80229;SDS011;69540;42.136;24.742;2023-06-14T01:50:20;1.75;;;1.65;;
80229;SDS011;69540;42.136;24.742;2023-06-14T01:52:46;1.60;;;1.60;;
80229;SDS011;69540;42.136;24.742;2023-06-14T01:55:12;1.60;;;1.60;;
80229;SDS011;69540;42.136;24.742;2023-06-14T01:57:37;1.73;;;1.63;;
80229;SDS011;69540;42.136;24.742;2023-06-14T02:00:04;1.60;;;1.50;;
80229;SDS011;69540;42.136;24.742;2023-06-14T02:02:33;2.03;;;1.92;;
80229;SDS011;69540;42.136;24.742;2023-06-14T02:04:59;1.75;;;1.65;;
80229;SDS011;69540;42.136;24.742;2023-06-14T02:07:24;1.60;;;1.50;;
80229;SDS011;69540;42.136;24.742;2023-06-14T02:09:50;1.83;;;1.73;;
80229;SDS011;69540;42.136;24.742;2023-06-14T02:12:16;1.58;;;1.48;;
80229;SDS011;69540;42.136;24.742;2023-06-14T02:14:41;1.50;;;1.50;;
80229;SDS011;69540;42.136;24.742;2023-06-14T02:17:07;1.80;;;1.70;;
80229;SDS011;69540;42.136;24.742;2023-06-14T02:19:33;1.70;;;1.60;;
80229;SDS011;69540;42.136;24.742;2023-06-14T02:21:58;1.45;;;1.42;;
80229;SDS011;69540;42.136;24.742;2023-06-14T02:24:24;1.75;;;1.65;;
80229;SDS011;69540;42.136;24.742;2023-06-14T02:26:50;1.65;;;1.60;;
80229;SDS011;69540;42.136;24.742;2023-06-14T02:29:16;1.83;;;1.73;;
80229;SDS011;69540;42.136;24.742;2023-06-14T02:31:41;1.90;;;1.80;;
80229;SDS011;69540;42.136;24.742;2023-06-14T02:34:07;1.85;;;1.75;;
80229;SDS011;69540;42.136;24.742;2023-06-14T02:36:35;1.80;;;1.70;;
80229;SDS011;69540;42.136;24.742;2023-06-14T02:39:07;1.67;;;1.58;;
80229;SDS011;69540;42.136;24.742;2023-06-14T02:41:36;1.48;;;1.48;;
80229;SDS011;69540;42.136;24.742;2023-06-14T02:44:03;1.70;;;1.70;;
80229;SDS011;69540;42.136;24.742;2023-06-14T02:46:28;1.95;;;1.85;;
80229;SDS011;69540;42.136;24.742;2023-06-14T02:48:54;1.90;;;1.80;;
80229;SDS011;69540;42.136;24.742;2023-06-14T02:51:20;1.75;;;1.65;;
80229;SDS011;69540;42.136;24.742;2023-06-14T02:53:45;1.80;;;1.70;;
80229;SDS011;69540;42.136;24.742;2023-06-14T02:56:11;1.52;;;1.42;;
80229;SDS011;69540;42.136;24.742;2023-06-14T02:58:37;1.52;;;1.50;;
80229;SDS011;69540;42.136;24.742;2023-06-14T03:01:04;1.67;;;1.58;;
80229;SDS011;69540;42.136;24.742;2023-06-14T03:03:32;1.38;;;1.38;;
80229;SDS011;69540;42.136;24.742;2023-06-14T03:05:58;1.85;;;1.75;;
80229;SDS011;69540;42.136;24.742;2023-06-14T03:08:30;1.38;;;1.38;;
80229;SDS011;69540;42.136;24.742;2023-06-14T03:10:56;1.70;;;1.70;;
80229;SDS011;69540;42.136;24.742;2023-06-14T03:13:23;1.80;;;1.70;;
80229;SDS011;69540;42.136;24.742;2023-06-14T03:15:48;1.50;;;1.40;;
80229;SDS011;69540;42.136;24.742;2023-06-14T03:18:17;1.70;;;1.60;;
80229;SDS011;69540;42.136;24.742;2023-06-14T03:20:42;1.73;;;1.70;;
80229;SDS011;69540;42.136;24.742;2023-06-14T03:23:10;1.60;;;1.60;;
80229;SDS011;69540;42.136;24.742;2023-06-14T03:25:36;1.75;;;1.65;;
80229;SDS011;69540;42.136;24.742;2023-06-14T03:28:04;1.80;;;1.70;;
80229;SDS011;69540;42.136;24.742;2023-06-14T03:30:30;1.70;;;1.60;;
80229;SDS011;69540;42.136;24.742;2023-06-14T03:32:56;1.88;;;1.77;;
80229;SDS011;69540;42.136;24.742;2023-06-14T03:35:22;1.20;;;1.20;;
80229;SDS011;69540;42.136;24.742;2023-06-14T03:37:48;1.38;;;1.38;;
80229;SDS011;69540;42.136;24.742;2023-06-14T03:40:15;1.67;;;1.60;;
80229;SDS011;69540;42.136;24.742;2023-06-14T03:42:42;1.90;;;1.80;;
80229;SDS011;69540;42.136;24.742;2023-06-14T03:45:08;1.42;;;1.40;;
80229;SDS011;69540;42.136;24.742;2023-06-14T03:47:35;1.65;;;1.55;;
80229;SDS011;69540;42.136;24.742;2023-06-14T03:50:01;1.80;;;1.70;;
80229;SDS011;69540;42.136;24.742;2023-06-14T03:52:28;2.60;;;2.30;;
80229;SDS011;69540;42.136;24.742;2023-06-14T03:54:54;2.60;;;2.40;;
80229;SDS011;69540;42.136;24.742;2023-06-14T03:57:20;2.88;;;2.67;;
80229;SDS011;69540;42.136;24.742;2023-06-14T03:59:46;2.58;;;2.38;;
80229;SDS011;69540;42.136;24.742;2023-06-14T04:02:12;3.22;;;2.30;;
80229;SDS011;69540;42.136;24.742;2023-06-14T04:04:40;3.22;;;2.50;;
80229;SDS011;69540;42.136;24.742;2023-06-14T04:07:09;3.10;;;2.63;;
80229;SDS011;69540;42.136;24.742;2023-06-14T04:09:36;3.90;;;3.05;;
80229;SDS011;69540;42.136;24.742;2023-06-14T04:12:03;3.35;;;2.70;;
80229;SDS011;69540;42.136;24.742;2023-06-14T04:14:30;2.90;;;2.70;;
80229;SDS011;69540;42.136;24.742;2023-06-14T04:16:58;2.85;;;2.65;;
80229;SDS011;69540;42.136;24.742;2023-06-14T04:19:23;3.78;;;2.80;;
80229;SDS011;69540;42.136;24.742;2023-06-14T04:21:49;4.28;;;2.88;;
80229;SDS011;69540;42.136;24.742;2023-06-14T04:24:15;3.90;;;3.33;;
80229;SDS011;69540;42.136;24.742;2023-06-14T04:26:41;5.90;;;3.47;;
80229;SDS011;69540;42.136;24.742;2023-06-14T04:29:10;3.90;;;3.40;;
80229;SDS011;69540;42.136;24.742;2023-06-14T04:31:39;5.40;;;3.60;;
80229;SDS011;69540;42.136;24.742;2023-06-14T04:34:05;6.13;;;3.67;;
80229;SDS011;69540;42.136;24.742;2023-06-14T04:36:33;3.58;;;3.28;;
80229;SDS011;69540;42.136;24.742;2023-06-14T04:39:02;4.97;;;3.63;;
80229;SDS011;69540;42.136;24.742;2023-06-14T04:41:29;4.07;;;3.67;;
80229;SDS011;69540;42.136;24.742;2023-06-14T04:44:00;5.78;;;3.78;;
80229;SDS011;69540;42.136;24.742;2023-06-14T04:46:29;3.95;;;3.55;;
80229;SDS011;69540;42.136;24.742;2023-06-14T04:48:57;3.67;;;3.35;;
80229;SDS011;69540;42.136;24.742;2023-06-14T04:51:27;6.65;;;3.60;;
80229;SDS011;69540;42.136;24.742;2023-06-14T04:53:57;4.82;;;3.47;;
80229;SDS011;69540;42.136;24.742;2023-06-14T04:56:24;5.07;;;3.45;;
80229;SDS011;69540;42.136;24.742;2023-06-14T04:58:52;4.03;;;3.63;;
80229;SDS011;69540;42.136;24.742;2023-06-14T05:01:19;5.28;;;3.33;;
80229;SDS011;69540;42.136;24.742;2023-06-14T05:03:46;5.65;;;3.30;;
80229;SDS011;69540;42.136;24.742;2023-06-14T05:06:14;6.72;;;3.45;;
80229;SDS011;69540;42.136;24.742;2023-06-14T05:08:40;4.75;;;3.47;;
80229;SDS011;69540;42.136;24.742;2023-06-14T05:11:06;4.28;;;3.80;;
80229;SDS011;69540;42.136;24.742;2023-06-14T05:13:32;4.60;;;3.53;;
80229;SDS011;69540;42.136;24.742;2023-06-14T05:15:58;4.15;;;3.80;;
80229;SDS011;69540;42.136;24.742;2023-06-14T05:18:24;5.63;;;4.00;;
80229;SDS011;69540;42.136;24.742;2023-06-14T05:20:50;4.65;;;3.85;;
80229;SDS011;69540;42.136;24.742;2023-06-14T05:23:16;4.90;;;4.40;;
80229;SDS011;69540;42.136;24.742;2023-06-14T05:25:45;5.18;;;3.92;;
80229;SDS011;69540;42.136;24.742;2023-06-14T05:28:11;6.00;;;4.47;;
80229;SDS011;69540;42.136;24.742;2023-06-14T05:30:39;4.78;;;4.38;;
80229;SDS011;69540;42.136;24.742;2023-06-14T05:33:05;6.32;;;4.60;;
80229;SDS011;69540;42.136;24.742;2023-06-14T05:35:31;5.07;;;4.63;;
80229;SDS011;69540;42.136;24.742;2023-06-14T05:37:56;5.75;;;4.30;;
80229;SDS011;69540;42.136;24.742;2023-06-14T05:40:22;5.15;;;4.65;;
80229;SDS011;69540;42.136;24.742;2023-06-14T05:42:48;5.53;;;5.00;;
80229;SDS011;69540;42.136;24.742;2023-06-14T05:45:14;5.03;;;4.60;;
80229;SDS011;69540;42.136;24.742;2023-06-14T05:47:41;5.82;;;4.80;;
80229;SDS011;69540;42.136;24.742;2023-06-14T05:50:06;5.32;;;4.93;;
80229;SDS011;69540;42.136;24.742;2023-06-14T05:52:33;5.72;;;5.22;;
80229;SDS011;69540;42.136;24.742;2023-06-14T05:55:00;5.95;;;5.45;;
80229;SDS011;69540;42.136;24.742;2023-06-14T05:57:26;5.57;;;5.10;;
80229;SDS011;69540;42.136;24.742;2023-06-14T05:59:52;7.10;;;5.38;;
80229;SDS011;69540;42.136;24.742;2023-06-14T06:02:17;6.07;;;5.57;;
80229;SDS011;69540;42.136;24.742;2023-06-14T06:04:43;5.47;;;4.97;;
80229;SDS011;69540;42.136;24.742;2023-06-14T06:07:08;6.05;;;5.38;;
80229;SDS011;69540;42.136;24.742;2023-06-14T06:09:34;5.85;;;5.35;;
80229;SDS011;69540;42.136;24.742;2023-06-14T06:12:00;6.20;;;5.13;;
80229;SDS011;69540;42.136;24.742;2023-06-14T06:14:25;6.75;;;5.47;;
80229;SDS011;69540;42.136;24.742;2023-06-14T06:16:51;8.77;;;5.75;;
80229;SDS011;69540;42.136;24.742;2023-06-14T06:19:17;6.07;;;5.50;;
80229;SDS011;69540;42.136;24.742;2023-06-14T06:21:43;6.20;;;5.60;;
80229;SDS011;69540;42.136;24.742;2023-06-14T06:24:09;6.82;;;5.80;;
80229;SDS011;69540;42.136;24.742;2023-06-14T06:26:34;5.80;;;5.30;;
80229;SDS011;69540;42.136;24.742;2023-06-14T06:29:00;6.38;;;5.65;;
80229;SDS011;69540;42.136;24.742;2023-06-14T06:31:26;5.70;;;5.20;;
80229;SDS011;69540;42.136;24.742;2023-06-14T06:33:52;6.50;;;5.50;;
80229;SDS011;69540;42.136;24.742;2023-06-14T06:36:19;5.90;;;5.38;;
80229;SDS011;69540;42.136;24.742;2023-06-14T06:38:46;5.93;;;5.43;;
80229;SDS011;69540;42.136;24.742;2023-06-14T06:41:12;6.20;;;5.60;;
80229;SDS011;69540;42.136;24.742;2023-06-14T06:43:38;5.82;;;5.32;;
80229;SDS011;69540;42.136;24.742;2023-06-14T06:46:04;5.88;;;5.28;;
80229;SDS011;69540;42.136;24.742;2023-06-14T06:48:30;5.03;;;4.63;;
80229;SDS011;69540;42.136;24.742;2023-06-14T06:50:56;5.82;;;5.32;;
80229;SDS011;69540;42.136;24.742;2023-06-14T06:53:21;5.25;;;4.85;;
80229;SDS011;69540;42.136;24.742;2023-06-14T06:55:48;5.63;;;5.13;;
80229;SDS011;69540;42.136;24.742;2023-06-14T06:58:13;5.75;;;5.20;;
80229;SDS011;69540;42.136;24.742;2023-06-14T07:00:39;5.40;;;4.90;;
80229;SDS011;69540;42.136;24.742;2023-06-14T07:03:05;5.75;;;5.20;;
80229;SDS011;69540;42.136;24.742;2023-06-14T07:05:31;5.85;;;5.25;;
80229;SDS011;69540;42.136;24.742;2023-06-14T07:07:57;5.07;;;4.68;;
80229;SDS011;69540;42.136;24.742;2023-06-14T07:10:22;5.68;;;5.18;;
80229;SDS011;69540;42.136;24.742;2023-06-14T07:12:49;5.38;;;4.72;;
80229;SDS011;69540;42.136;24.742;2023-06-14T07:15:15;5.07;;;4.68;;
80229;SDS011;69540;42.136;24.742;2023-06-14T07:17:41;5.28;;;4.88;;
80229;SDS011;69540;42.136;24.742;2023-06-14T07:20:07;5.80;;;5.30;;
80229;SDS011;69540;42.136;24.742;2023-06-14T07:22:39;5.65;;;5.15;;
80229;SDS011;69540;42.136;24.742;2023-06-14T07:25:11;5.85;;;5.30;;
80229;SDS011;69540;42.136;24.742;2023-06-14T07:27:39;5.80;;;5.20;;
80229;SDS011;69540;42.136;24.742;2023-06-14T07:30:08;5.93;;;5.32;;
80229;SDS011;69540;42.136;24.742;2023-06-14T07:32:35;5.70;;;5.05;;
80229;SDS011;69540;42.136;24.742;2023-06-14T07:35:01;5.95;;;5.35;;
80229;SDS011;69540;42.136;24.742;2023-06-14T07:37:28;5.45;;;4.95;;
80229;SDS011;69540;42.136;24.742;2023-06-14T07:39:53;5.32;;;4.70;;
80229;SDS011;69540;42.136;24.742;2023-06-14T07:42:19;5.30;;;4.80;;
80229;SDS011;69540;42.136;24.742;2023-06-14T07:44:45;5.07;;;4.68;;
80229;SDS011;69540;42.136;24.742;2023-06-14T07:47:11;5.45;;;5.05;;
80229;SDS011;69540;42.136;24.742;2023-06-14T07:49:37;5.20;;;4.80;;
80229;SDS011;69540;42.136;24.742;2023-06-14T07:52:02;5.40;;;4.90;;
80229;SDS011;69540;42.136;24.742;2023-06-14T07:54:30;5.40;;;4.93;;
80229;SDS011;69540;42.136;24.742;2023-06-14T07:56:56;5.25;;;4.82;;
80229;SDS011;69540;42.136;24.742;2023-06-14T07:59:23;5.22;;;4.70;;
80229;SDS011;69540;42.136;24.742;2023-06-14T08:01:49;5.22;;;4.82;;
80229;SDS011;69540;42.136;24.742;2023-06-14T08:04:15;5.07;;;4.57;;
80229;SDS011;69540;42.136;24.742;2023-06-14T08:06:41;5.10;;;4.60;;
80229;SDS011;69540;42.136;24.742;2023-06-14T08:09:09;4.72;;;4.32;;
80229;SDS011;69540;42.136;24.742;2023-06-14T08:11:36;5.28;;;4.78;;
80229;SDS011;69540;42.136;24.742;2023-06-14T08:14:02;5.05;;;4.55;;
80229;SDS011;69540;42.136;24.742;2023-06-14T08:16:28;4.60;;;4.30;;
80229;SDS011;69540;42.136;24.742;2023-06-14T08:18:55;5.00;;;4.60;;
80229;SDS011;69540;42.136;24.742;2023-06-14T08:21:20;4.75;;;4.35;;
80229;SDS011;69540;42.136;24.742;2023-06-14T08:23:46;5.60;;;5.10;;
80229;SDS011;69540;42.136;24.742;2023-06-14T08:26:12;5.20;;;4.75;;
80229;SDS011;69540;42.136;24.742;2023-06-14T08:28:38;5.25;;;4.85;;
80229;SDS011;69540;42.136;24.742;2023-06-14T08:31:03;5.47;;;4.97;;
80229;SDS011;69540;42.136;24.742;2023-06-14T08:33:29;5.53;;;4.93;;
80229;SDS011;69540;42.136;24.742;2023-06-14T08:35:57;4.88;;;4.47;;
80229;SDS011;69540;42.136;24.742;2023-06-14T08:38:23;4.88;;;4.38;;
80229;SDS011;69540;42.136;24.742;2023-06-14T08:40:50;5.32;;;4.82;;
80229;SDS011;69540;42.136;24.742;2023-06-14T08:43:17;5.20;;;4.70;;
80229;SDS011;69540;42.136;24.742;2023-06-14T08:45:43;5.00;;;4.60;;
80229;SDS011;69540;42.136;24.742;2023-06-14T08:48:11;5.20;;;4.70;;
80229;SDS011;69540;42.136;24.742;2023-06-14T08:50:42;4.80;;;4.43;;
80229;SDS011;69540;42.136;24.742;2023-06-14T08:53:11;5.47;;;4.97;;
80229;SDS011;69540;42.136;24.742;2023-06-14T08:55:45;4.93;;;4.53;;
80229;SDS011;69540;42.136;24.742;2023-06-14T08:58:12;5.15;;;4.75;;
80229;SDS011;69540;42.136;24.742;2023-06-14T09:00:39;5.72;;;5.32;;
80229;SDS011;69540;42.136;24.742;2023-06-14T09:03:06;5.50;;;5.10;;
80229;SDS011;69540;42.136;24.742;2023-06-14T09:05:38;5.60;;;5.10;;
80229;SDS011;69540;42.136;24.742;2023-06-14T09:08:04;5.20;;;4.70;;
80229;SDS011;69540;42.136;24.742;2023-06-14T09:10:30;5.13;;;4.72;;
80229;SDS011;69540;42.136;24.742;2023-06-14T09:13:02;5.20;;;4.80;;
80229;SDS011;69540;42.136;24.742;2023-06-14T09:15:29;5.43;;;4.90;;
80229;SDS011;69540;42.136;24.742;2023-06-14T09:17:56;5.10;;;4.70;;
80229;SDS011;69540;42.136;24.742;2023-06-14T09:20:23;5.20;;;4.80;;
80229;SDS011;69540;42.136;24.742;2023-06-14T09:22:49;4.78;;;4.35;;
80229;SDS011;69540;42.136;24.742;2023-06-14T09:25:16;4.95;;;4.55;;
80229;SDS011;69540;42.136;24.742;2023-06-14T09:27:43;5.38;;;4.88;;
80229;SDS011;69540;42.136;24.742;2023-06-14T09:30:10;5.75;;;4.97;;
80229;SDS011;69540;42.136;24.742;2023-06-14T09:32:37;5.90;;;4.80;;
80229;SDS011;69540;42.136;24.742;2023-06-14T09:35:07;5.43;;;4.93;;
80229;SDS011;69540;42.136;24.742;2023-06-14T09:37:33;5.00;;;4.60;;
80229;SDS011;69540;42.136;24.742;2023-06-14T09:40:00;5.20;;;4.70;;
80229;SDS011;69540;42.136;24.742;2023-06-14T09:42:27;4.95;;;4.55;;
80229;SDS011;69540;42.136;24.742;2023-06-14T09:44:55;4.93;;;4.53;;
80229;SDS011;69540;42.136;24.742;2023-06-14T09:47:21;4.90;;;4.50;;
80229;SDS011;69540;42.136;24.742;2023-06-14T09:49:48;4.95;;;4.55;;
80229;SDS011;69540;42.136;24.742;2023-06-14T09:52:15;5.15;;;4.68;;
80229;SDS011;69540;42.136;24.742;2023-06-14T09:54:42;4.82;;;4.40;;
80229;SDS011;69540;42.136;24.742;2023-06-14T09:57:11;4.90;;;4.50;;
80229;SDS011;69540;42.136;24.742;2023-06-14T09:59:39;5.15;;;4.75;;
80229;SDS011;69540;42.136;24.742;2023-06-14T10:02:09;5.40;;;4.90;;
80229;SDS011;69540;42.136;24.742;2023-06-14T10:04:41;5.15;;;4.75;;
80229;SDS011;69540;42.136;24.742;2023-06-14T10:07:13;5.30;;;4.80;;
80229;SDS011;69540;42.136;24.742;2023-06-14T10:09:43;5.25;;;4.85;;
80229;SDS011;69540;42.136;24.742;2023-06-14T10:12:14;5.53;;;5.05;;
80229;SDS011;69540;42.136;24.742;2023-06-14T10:14:46;5.27;;;4.87;;
80229;SDS011;69540;42.136;24.742;2023-06-14T10:17:41;5.15;;;4.75;;
80229;SDS011;69540;42.136;24.742;2023-06-14T10:20:23;5.35;;;4.85;;
80229;SDS011;69540;42.136;24.742;2023-06-14T10:23:10;5.70;;;5.20;;
80229;SDS011;69540;42.136;24.742;2023-06-14T10:25:49;5.30;;;4.82;;
80229;SDS011;69540;42.136;24.742;2023-06-14T10:28:16;5.40;;;4.85;;
80229;SDS011;69540;42.136;24.742;2023-06-14T10:33:36;5.10;;;4.70;;
80229;SDS011;69540;42.136;24.742;2023-06-14T10:41:42;5.60;;;5.00;;
80229;SDS011;69540;42.136;24.742;2023-06-14T10:46:47;5.90;;;5.40;;
80229;SDS011;69540;42.136;24.742;2023-06-14T10:49:17;5.95;;;5.18;;
80229;SDS011;69540;42.136;24.742;2023-06-14T10:52:06;5.40;;;5.00;;
80229;SDS011;69540;42.136;24.742;2023-06-14T10:54:47;5.13;;;4.63;;
80229;SDS011;69540;42.136;24.742;2023-06-14T10:57:21;5.13;;;4.72;;
80229;SDS011;69540;42.136;24.742;2023-06-14T10:59:46;5.30;;;4.80;;
80229;SDS011;69540;42.136;24.742;2023-06-14T11:04:48;5.10;;;4.70;;
80229;SDS011;69540;42.136;24.742;2023-06-14T11:12:57;4.90;;;4.50;;
80229;SDS011;69540;42.136;24.742;2023-06-14T11:15:28;5.15;;;4.75;;
80229;SDS011;69540;42.136;24.742;2023-06-14T11:17:54;4.85;;;4.55;;
80229;SDS011;69540;42.136;24.742;2023-06-14T11:20:24;4.82;;;4.53;;
80229;SDS011;69540;42.136;24.742;2023-06-14T11:22:51;5.40;;;4.90;;
80229;SDS011;69540;42.136;24.742;2023-06-14T11:25:17;5.40;;;4.90;;
80229;SDS011;69540;42.136;24.742;2023-06-14T11:27:43;5.15;;;4.75;;
80229;SDS011;69540;42.136;24.742;2023-06-14T11:30:10;5.70;;;4.82;;
80229;SDS011;69540;42.136;24.742;2023-06-14T11:32:36;5.25;;;4.85;;
80229;SDS011;69540;42.136;24.742;2023-06-14T11:35:03;5.13;;;4.65;;
80229;SDS011;69540;42.136;24.742;2023-06-14T11:37:32;5.05;;;4.65;;
80229;SDS011;69540;42.136;24.742;2023-06-14T11:39:59;4.93;;;4.53;;
80229;SDS011;69540;42.136;24.742;2023-06-14T11:42:28;5.03;;;4.55;;
80229;SDS011;69540;42.136;24.742;2023-06-14T11:44:55;4.63;;;4.28;;
80229;SDS011;69540;42.136;24.742;2023-06-14T11:47:21;4.95;;;4.43;;
80229;SDS011;69540;42.136;24.742;2023-06-14T11:49:47;4.80;;;4.40;;
80229;SDS011;69540;42.136;24.742;2023-06-14T11:52:13;4.80;;;4.40;;
80229;SDS011;69540;42.136;24.742;2023-06-14T11:54:39;5.50;;;5.00;;
80229;SDS011;69540;42.136;24.742;2023-06-14T11:57:08;4.75;;;4.43;;
80229;SDS011;69540;42.136;24.742;2023-06-14T11:59:38;5.00;;;4.60;;
80229;SDS011;69540;42.136;24.742;2023-06-14T12:02:09;5.18;;;4.72;;
80229;SDS011;69540;42.136;24.742;2023-06-14T12:04:40;5.07;;;4.68;;
80229;SDS011;69540;42.136;24.742;2023-06-14T12:07:10;5.22;;;4.72;;
80229;SDS011;69540;42.136;24.742;2023-06-14T12:09:40;5.20;;;4.80;;
80229;SDS011;69540;42.136;24.742;2023-06-14T12:12:09;5.20;;;4.80;;
80229;SDS011;69540;42.136;24.742;2023-06-14T12:14:36;5.30;;;4.90;;
80229;SDS011;69540;42.136;24.742;2023-06-14T12:17:07;5.57;;;5.18;;
80229;SDS011;69540;42.136;24.742;2023-06-14T12:19:33;5.32;;;4.93;;
80229;SDS011;69540;42.136;24.742;2023-06-14T12:22:12;5.60;;;5.10;;
80229;SDS011;69540;42.136;24.742;2023-06-14T12:24:38;5.65;;;5.15;;
80229;SDS011;69540;42.136;24.742;2023-06-14T12:27:07;5.85;;;5.35;;
80229;SDS011;69540;42.136;24.742;2023-06-14T12:29:33;5.68;;;5.18;;
80229;SDS011;69540;42.136;24.742;2023-06-14T12:31:59;6.18;;;5.57;;
80229;SDS011;69540;42.136;24.742;2023-06-14T12:34:25;6.68;;;6.18;;
80229;SDS011;69540;42.136;24.742;2023-06-14T12:36:52;6.72;;;6.20;;
80229;SDS011;69540;42.136;24.742;2023-06-14T12:39:18;6.80;;;6.22;;
80229;SDS011;69540;42.136;24.742;2023-06-14T12:41:45;9.70;;;6.90;;
80229;SDS011;69540;42.136;24.742;2023-06-14T12:44:11;6.53;;;6.03;;
80229;SDS011;69540;42.136;24.742;2023-06-14T12:46:37;6.68;;;6.15;;
80229;SDS011;69540;42.136;24.742;2023-06-14T12:49:08;7.07;;;6.47;;
80229;SDS011;69540;42.136;24.742;2023-06-14T12:51:37;7.20;;;6.60;;
80229;SDS011;69540;42.136;24.742;2023-06-14T12:54:03;7.15;;;6.45;;
80229;SDS011;69540;42.136;24.742;2023-06-14T12:56:29;6.88;;;6.38;;
80229;SDS011;69540;42.136;24.742;2023-06-14T12:58:55;7.00;;;6.30;;
80229;SDS011;69540;42.136;24.742;2023-06-14T13:01:20;6.57;;;5.97;;
80229;SDS011;69540;42.136;24.742;2023-06-14T13:03:47;6.60;;;6.10;;
80229;SDS011;69540;42.136;24.742;2023-06-14T13:06:13;7.60;;;6.80;;
80229;SDS011;69540;42.136;24.742;2023-06-14T13:08:40;6.97;;;6.22;;
80229;SDS011;69540;42.136;24.742;2023-06-14T13:11:05;6.35;;;5.85;;
80229;SDS011;69540;42.136;24.742;2023-06-14T13:13:31;6.63;;;6.03;;
80229;SDS011;69540;42.136;24.742;2023-06-14T13:15:56;6.60;;;6.00;;
80229;SDS011;69540;42.136;24.742;2023-06-14T13:18:22;7.40;;;6.07;;
80229;SDS011;69540;42.136;24.742;2023-06-14T13:20:48;6.60;;;6.00;;
80229;SDS011;69540;42.136;24.742;2023-06-14T13:23:14;6.53;;;6.03;;
80229;SDS011;69540;42.136;24.742;2023-06-14T13:25:41;6.25;;;5.75;;
80229;SDS011;69540;42.136;24.742;2023-06-14T13:28:06;7.28;;;6.50;;
80229;SDS011;69540;42.136;24.742;2023-06-14T13:30:32;6.97;;;6.38;;
80229;SDS011;69540;42.136;24.742;2023-06-14T13:32:59;6.35;;;5.85;;
80229;SDS011;69540;42.136;24.742;2023-06-14T13:35:25;6.57;;;5.97;;
80229;SDS011;69540;42.136;24.742;2023-06-14T13:37:51;6.25;;;5.75;;
80229;SDS011;69540;42.136;24.742;2023-06-14T13:40:17;6.13;;;5.70;;
80229;SDS011;69540;42.136;24.742;2023-06-14T13:42:42;6.38;;;5.80;;
80229;SDS011;69540;42.136;24.742;2023-06-14T13:45:08;6.65;;;6.15;;
80229;SDS011;69540;42.136;24.742;2023-06-14T13:47:35;6.32;;;5.82;;
80229;SDS011;69540;42.136;24.742;2023-06-14T13:50:01;7.07;;;6.47;;
80229;SDS011;69540;42.136;24.742;2023-06-14T13:52:29;7.18;;;6.57;;
80229;SDS011;69540;42.136;24.742;2023-06-14T13:54:54;6.57;;;6.07;;
80229;SDS011;69540;42.136;24.742;2023-06-14T13:57:20;7.18;;;6.47;;
80229;SDS011;69540;42.136;24.742;2023-06-14T13:59:46;6.53;;;5.97;;
80229;SDS011;69540;42.136;24.742;2023-06-14T14:02:12;6.63;;;6.00;;
80229;SDS011;69540;42.136;24.742;2023-06-14T14:04:38;6.50;;;6.00;;
80229;SDS011;69540;42.136;24.742;2023-06-14T14:07:04;6.88;;;6.18;;
80229;SDS011;69540;42.136;24.742;2023-06-14T14:09:31;6.32;;;5.82;;
80229;SDS011;69540;42.136;24.742;2023-06-14T14:12:00;7.13;;;6.43;;
80229;SDS011;69540;42.136;24.742;2023-06-14T14:14:27;6.38;;;5.80;;
80229;SDS011;69540;42.136;24.742;2023-06-14T14:16:53;5.82;;;5.32;;
80229;SDS011;69540;42.136;24.742;2023-06-14T14:19:20;5.78;;;5.38;;
80229;SDS011;69540;42.136;24.742;2023-06-14T14:21:47;6.47;;;5.88;;
80229;SDS011;69540;42.136;24.742;2023-06-14T14:24:14;5.60;;;5.10;;
80229;SDS011;69540;42.136;24.742;2023-06-14T14:26:40;5.47;;;5.07;;
80229;SDS011;69540;42.136;24.742;2023-06-14T14:29:06;5.57;;;5.15;;
80229;SDS011;69540;42.136;24.742;2023-06-14T14:31:32;5.57;;;5.13;;
80229;SDS011;69540;42.136;24.742;2023-06-14T14:33:58;5.28;;;4.88;;
80229;SDS011;69540;42.136;24.742;2023-06-14T14:36:24;5.25;;;4.75;;
80229;SDS011;69540;42.136;24.742;2023-06-14T14:38:50;4.88;;;4.47;;
80229;SDS011;69540;42.136;24.742;2023-06-14T14:41:17;4.38;;;4.07;;
80229;SDS011;69540;42.136;24.742;2023-06-14T14:43:42;5.13;;;4.72;;
80229;SDS011;69540;42.136;24.742;2023-06-14T14:46:08;5.15;;;4.75;;
80229;SDS011;69540;42.136;24.742;2023-06-14T14:48:34;5.20;;;4.38;;
80229;SDS011;69540;42.136;24.742;2023-06-14T14:51:00;4.68;;;4.30;;
80229;SDS011;69540;42.136;24.742;2023-06-14T14:53:26;4.60;;;4.20;;
80229;SDS011;69540;42.136;24.742;2023-06-14T14:55:52;4.53;;;4.13;;
80229;SDS011;69540;42.136;24.742;2023-06-14T14:58:18;4.45;;;4.10;;